Aaron Joseph — WCV9877 — position and weather

sailwx.info

Track history (hours):
 
Tides and Currents Weather Stations Pressure Air Temp Water Temp Dewpoint Dewpoint Depression Visibility Wind Speed Wind Dir Waves Ship Positions

Aaron Joseph

Owner: AARON JOSEPH INC, GOLDEN MEADOW, LA. More information available from US FCC via Universal Licensing System and Coast Guard Vessel Documentation Center.

Last reported at 2015-Aug-04 23:19 UTC. Time now 2015-Aug-05 06:31 UTC.
Position N 29°55' W 090°05'.

; draft 2.5 m.

Type: Tug. MMSI: 367028680.

Date/timePositionNaut miles runAvg speedWind from/ knotsBaromVisibWave heightAir tempDewpointWater temp
2015-Aug-04 23:19N 29°55' W 090°05'3 0.3
2015-Aug-04 15:24N 29°55' W 090°08'28 0.6
2015-Aug-02 14:09N 29°34' W 090°29'5 7.4
2015-Aug-02 13:32N 29°34' W 090°34'2 2.0
2015-Aug-02 12:30N 29°35' W 090°36'0 0.0
2015-Aug-02 11:33N 29°35' W 090°36'0 0.0
2015-Aug-02 10:30N 29°35' W 090°36'0 0.0
2015-Aug-02 09:33N 29°35' W 090°36'0 0.0
2015-Aug-02 08:30N 29°35' W 090°36'0 0.0
2015-Aug-02 07:12N 29°35' W 090°36'0 0.0
2015-Aug-02 06:33N 29°35' W 090°36'0 0.0
2015-Aug-02 05:30N 29°35' W 090°36'0 0.0
2015-Aug-02 04:30N 29°35' W 090°36'0 0.0
2015-Aug-02 03:30N 29°35' W 090°36'0 0.0
2015-Aug-02 01:12N 29°35' W 090°36'0 0.0
2015-Aug-02 00:24N 29°35' W 090°36'0 0.0
2015-Aug-01 23:06N 29°35' W 090°36'0 0.0
2015-Aug-01 21:30N 29°35' W 090°36'0 0.0
2015-Aug-01 20:30N 29°35' W 090°36'0 0.0
2015-Aug-01 19:24N 29°35' W 090°36'0 0.0
2015-Aug-01 17:30N 29°35' W 090°36'0 0.0
2015-Aug-01 16:30N 29°35' W 090°36'0 0.0
2015-Aug-01 15:24N 29°35' W 090°36'0 0.0
2015-Aug-01 14:06N 29°35' W 090°36'0 0.0
2015-Aug-01 13:24N 29°35' W 090°36'0 0.0
2015-Aug-01 12:30N 29°35' W 090°36'0 0.0
2015-Aug-01 11:27N 29°35' W 090°36'0 0.0
2015-Aug-01 10:30N 29°35' W 090°36'0 0.0
2015-Aug-01 09:27N 29°35' W 090°36'0 0.0
2015-Aug-01 08:30N 29°35' W 090°36'0 0.0
2015-Aug-01 07:30N 29°35' W 090°36'0 0.0
2015-Aug-01 06:30N 29°35' W 090°36'0 0.0
2015-Aug-01 05:33N 29°35' W 090°36'0 0.0
2015-Aug-01 04:33N 29°35' W 090°36'0 0.0
2015-Aug-01 03:33N 29°35' W 090°36'0 0.0
2015-Aug-01 02:33N 29°35' W 090°36'4 3.8
2015-Aug-01 01:32N 29°36' W 090°40'2 2.3
2015-Aug-01 00:33N 29°35' W 090°43'2 2.1
2015-Jul-31 23:33N 29°33' W 090°42'3 3.3
2015-Jul-31 22:33N 29°36' W 090°41'5 4.9
2015-Jul-31 21:33N 29°35' W 090°36'5 0.3
2015-Jul-31 03:33N 29°34' W 090°30'5 5.5
2015-Jul-31 02:33N 29°35' W 090°36'5 4.9
2015-Jul-31 01:33N 29°37' W 090°41'3 2.6
2015-Jul-31 00:32N 29°34' W 090°43'4 3.7
2015-Jul-30 23:33N 29°32' W 090°46'6 5.2
2015-Jul-30 22:21N 29°33' W 090°53'  
Track history (hours):
 
Tides and Currents Weather Stations Pressure Air Temp Water Temp Dewpoint Dewpoint Depression Visibility Wind Speed Wind Dir Waves Ship Positions

Aaron Joseph

Owner: AARON JOSEPH INC, GOLDEN MEADOW, LA. More information available from US FCC via Universal Licensing System and Coast Guard Vessel Documentation Center.

Last reported at 2015-Aug-04 23:19 UTC. Time now 2015-Aug-05 06:31 UTC.
Position N 29°55' W 090°05'.

; draft 2.5 m.

Type: Tug. MMSI: 367028680.

Date/timePositionNaut miles runAvg speedWind from/ knotsBaromVisibWave heightAir tempDewpointWater temp
2015-Aug-04 23:19N 29°55' W 090°05'3 0.3
2015-Aug-04 15:24N 29°55' W 090°08'28 0.6
2015-Aug-02 14:09N 29°34' W 090°29'5 7.4
2015-Aug-02 13:32N 29°34' W 090°34'2 2.0
2015-Aug-02 12:30N 29°35' W 090°36'0 0.0
2015-Aug-02 11:33N 29°35' W 090°36'0 0.0
2015-Aug-02 10:30N 29°35' W 090°36'0 0.0
2015-Aug-02 09:33N 29°35' W 090°36'0 0.0
2015-Aug-02 08:30N 29°35' W 090°36'0 0.0
2015-Aug-02 07:12N 29°35' W 090°36'0 0.0
2015-Aug-02 06:33N 29°35' W 090°36'0 0.0
2015-Aug-02 05:30N 29°35' W 090°36'0 0.0
2015-Aug-02 04:30N 29°35' W 090°36'0 0.0
2015-Aug-02 03:30N 29°35' W 090°36'0 0.0
2015-Aug-02 01:12N 29°35' W 090°36'0 0.0
2015-Aug-02 00:24N 29°35' W 090°36'0 0.0
2015-Aug-01 23:06N 29°35' W 090°36'0 0.0
2015-Aug-01 21:30N 29°35' W 090°36'0 0.0
2015-Aug-01 20:30N 29°35' W 090°36'0 0.0
2015-Aug-01 19:24N 29°35' W 090°36'0 0.0
2015-Aug-01 17:30N 29°35' W 090°36'0 0.0
2015-Aug-01 16:30N 29°35' W 090°36'0 0.0
2015-Aug-01 15:24N 29°35' W 090°36'0 0.0
2015-Aug-01 14:06N 29°35' W 090°36'0 0.0
2015-Aug-01 13:24N 29°35' W 090°36'0 0.0
2015-Aug-01 12:30N 29°35' W 090°36'0 0.0
2015-Aug-01 11:27N 29°35' W 090°36'0 0.0
2015-Aug-01 10:30N 29°35' W 090°36'0 0.0
2015-Aug-01 09:27N 29°35' W 090°36'0 0.0
2015-Aug-01 08:30N 29°35' W 090°36'0 0.0
2015-Aug-01 07:30N 29°35' W 090°36'0 0.0
2015-Aug-01 06:30N 29°35' W 090°36'0 0.0
2015-Aug-01 05:33N 29°35' W 090°36'0 0.0
2015-Aug-01 04:33N 29°35' W 090°36'0 0.0
2015-Aug-01 03:33N 29°35' W 090°36'0 0.0
2015-Aug-01 02:33N 29°35' W 090°36'4 3.8
2015-Aug-01 01:32N 29°36' W 090°40'2 2.3
2015-Aug-01 00:33N 29°35' W 090°43'2 2.1
2015-Jul-31 23:33N 29°33' W 090°42'3 3.3
2015-Jul-31 22:33N 29°36' W 090°41'5 4.9
2015-Jul-31 21:33N 29°35' W 090°36'5 0.3
2015-Jul-31 03:33N 29°34' W 090°30'5 5.5
2015-Jul-31 02:33N 29°35' W 090°36'5 4.9
2015-Jul-31 01:33N 29°37' W 090°41'3 2.6
2015-Jul-31 00:32N 29°34' W 090°43'4 3.7
2015-Jul-30 23:33N 29°32' W 090°46'6 5.2
2015-Jul-30 22:21N 29°33' W 090°53'  

Dump ship's entire track history